sensor_id;sensor_type;location;lat;lon;timestamp;temperature;humidity
74822;DHT22;63353;48.702;8.884;2024-01-10T00:01:33;-7.00;99.90
74822;DHT22;63353;48.702;8.884;2024-01-10T00:03:59;-7.10;99.90
74822;DHT22;63353;48.702;8.884;2024-01-10T00:06:24;-7.10;99.90
74822;DHT22;63353;48.702;8.884;2024-01-10T00:08:52;-7.10;99.90
74822;DHT22;63353;48.702;8.884;2024-01-10T00:11:17;-7.10;99.90
74822;DHT22;63353;48.702;8.884;2024-01-10T00:13:44;-7.10;99.90
74822;DHT22;63353;48.702;8.884;2024-01-10T00:16:14;-7.10;99.90
74822;DHT22;63353;48.702;8.884;2024-01-10T00:18:40;-7.10;99.90
74822;DHT22;63353;48.702;8.884;2024-01-10T00:21:06;-7.10;99.90
74822;DHT22;63353;48.702;8.884;2024-01-10T00:23:32;-7.10;99.90
74822;DHT22;63353;48.702;8.884;2024-01-10T00:25:57;-7.20;99.90
74822;DHT22;63353;48.702;8.884;2024-01-10T00:28:23;-7.10;99.90
74822;DHT22;63353;48.702;8.884;2024-01-10T00:30:49;-7.10;99.90
74822;DHT22;63353;48.702;8.884;2024-01-10T00:33:15;-7.10;99.90
74822;DHT22;63353;48.702;8.884;2024-01-10T00:35:41;-7.10;99.90
74822;DHT22;63353;48.702;8.884;2024-01-10T00:38:07;-7.10;99.90
74822;DHT22;63353;48.702;8.884;2024-01-10T00:40:32;-7.10;99.90
74822;DHT22;63353;48.702;8.884;2024-01-10T00:42:58;-7.10;99.90
74822;DHT22;63353;48.702;8.884;2024-01-10T00:45:24;-7.10;99.90
74822;DHT22;63353;48.702;8.884;2024-01-10T00:47:50;-7.10;99.90
74822;DHT22;63353;48.702;8.884;2024-01-10T00:50:16;-7.00;99.90
74822;DHT22;63353;48.702;8.884;2024-01-10T00:52:44;-7.00;99.90
74822;DHT22;63353;48.702;8.884;2024-01-10T00:55:10;-7.00;99.90
74822;DHT22;63353;48.702;8.884;2024-01-10T00:57:37;-6.90;99.90
74822;DHT22;63353;48.702;8.884;2024-01-10T01:00:07;-6.90;99.90
74822;DHT22;63353;48.702;8.884;2024-01-10T01:02:33;-6.90;99.90
74822;DHT22;63353;48.702;8.884;2024-01-10T01:04:58;-6.90;99.90
74822;DHT22;63353;48.702;8.884;2024-01-10T01:07:24;-6.80;99.90
74822;DHT22;63353;48.702;8.884;2024-01-10T01:09:49;-6.80;99.90
74822;DHT22;63353;48.702;8.884;2024-01-10T01:12:16;-6.80;99.90
74822;DHT22;63353;48.702;8.884;2024-01-10T01:14:43;-6.70;99.90
74822;DHT22;63353;48.702;8.884;2024-01-10T01:17:09;-6.60;99.90
74822;DHT22;63353;48.702;8.884;2024-01-10T01:19:35;-6.50;99.90
74822;DHT22;63353;48.702;8.884;2024-01-10T01:22:01;-6.50;99.90
74822;DHT22;63353;48.702;8.884;2024-01-10T01:24:26;-6.50;99.90
74822;DHT22;63353;48.702;8.884;2024-01-10T01:26:52;-6.50;99.90
74822;DHT22;63353;48.702;8.884;2024-01-10T01:29:18;-6.50;99.90
74822;DHT22;63353;48.702;8.884;2024-01-10T01:31:44;-6.50;99.90
74822;DHT22;63353;48.702;8.884;2024-01-10T01:34:10;-6.50;99.90
74822;DHT22;63353;48.702;8.884;2024-01-10T01:36:36;-6.50;99.90
74822;DHT22;63353;48.702;8.884;2024-01-10T01:39:02;-6.40;99.90
74822;DHT22;63353;48.702;8.884;2024-01-10T01:41:28;-6.40;99.90
74822;DHT22;63353;48.702;8.884;2024-01-10T01:43:54;-6.40;99.90
74822;DHT22;63353;48.702;8.884;2024-01-10T01:46:20;-6.30;99.90
74822;DHT22;63353;48.702;8.884;2024-01-10T01:48:46;-6.30;99.90
74822;DHT22;63353;48.702;8.884;2024-01-10T01:51:12;-6.20;99.90
74822;DHT22;63353;48.702;8.884;2024-01-10T01:53:40;-6.20;99.90
74822;DHT22;63353;48.702;8.884;2024-01-10T01:56:08;-6.20;99.90
74822;DHT22;63353;48.702;8.884;2024-01-10T01:58:35;-6.20;99.90
74822;DHT22;63353;48.702;8.884;2024-01-10T02:01:03;-6.10;99.90
74822;DHT22;63353;48.702;8.884;2024-01-10T02:03:33;-6.10;99.90
74822;DHT22;63353;48.702;8.884;2024-01-10T02:06:00;-6.10;99.90
74822;DHT22;63353;48.702;8.884;2024-01-10T02:08:34;-6.10;99.90
74822;DHT22;63353;48.702;8.884;2024-01-10T02:11:01;-6.10;99.90
74822;DHT22;63353;48.702;8.884;2024-01-10T02:13:28;-6.10;99.90
74822;DHT22;63353;48.702;8.884;2024-01-10T02:15:54;-6.20;99.90
74822;DHT22;63353;48.702;8.884;2024-01-10T02:18:20;-6.10;99.90
74822;DHT22;63353;48.702;8.884;2024-01-10T02:20:45;-6.10;99.90
74822;DHT22;63353;48.702;8.884;2024-01-10T02:23:11;-6.10;99.90
74822;DHT22;63353;48.702;8.884;2024-01-10T02:25:38;-6.00;99.90
74822;DHT22;63353;48.702;8.884;2024-01-10T02:28:04;-6.00;99.90
74822;DHT22;63353;48.702;8.884;2024-01-10T02:30:31;-6.00;99.90
74822;DHT22;63353;48.702;8.884;2024-01-10T02:32:57;-5.90;99.90
74822;DHT22;63353;48.702;8.884;2024-01-10T02:35:22;-5.90;99.90
74822;DHT22;63353;48.702;8.884;2024-01-10T02:37:48;-5.90;99.90
74822;DHT22;63353;48.702;8.884;2024-01-10T02:40:17;-5.90;99.90
74822;DHT22;63353;48.702;8.884;2024-01-10T02:42:43;-5.90;99.90
74822;DHT22;63353;48.702;8.884;2024-01-10T02:45:09;-5.80;99.90
74822;DHT22;63353;48.702;8.884;2024-01-10T02:47:35;-5.80;99.90
74822;DHT22;63353;48.702;8.884;2024-01-10T02:50:02;-5.80;99.90
74822;DHT22;63353;48.702;8.884;2024-01-10T02:52:28;-5.80;99.90
74822;DHT22;63353;48.702;8.884;2024-01-10T02:54:54;-5.80;99.90
74822;DHT22;63353;48.702;8.884;2024-01-10T02:57:19;-5.70;99.90
74822;DHT22;63353;48.702;8.884;2024-01-10T02:59:45;-5.70;99.90
74822;DHT22;63353;48.702;8.884;2024-01-10T03:02:11;-5.70;99.90
74822;DHT22;63353;48.702;8.884;2024-01-10T03:04:37;-5.70;99.90
74822;DHT22;63353;48.702;8.884;2024-01-10T03:07:03;-5.70;99.90
74822;DHT22;63353;48.702;8.884;2024-01-10T03:09:29;-5.80;99.90
74822;DHT22;63353;48.702;8.884;2024-01-10T03:11:54;-5.70;99.90
74822;DHT22;63353;48.702;8.884;2024-01-10T03:14:20;-5.70;99.90
74822;DHT22;63353;48.702;8.884;2024-01-10T03:16:46;-5.70;99.90
74822;DHT22;63353;48.702;8.884;2024-01-10T03:19:11;-5.70;99.90
74822;DHT22;63353;48.702;8.884;2024-01-10T03:21:37;-5.70;99.90
74822;DHT22;63353;48.702;8.884;2024-01-10T03:24:03;-5.70;99.90
74822;DHT22;63353;48.702;8.884;2024-01-10T03:26:29;-5.70;99.90
74822;DHT22;63353;48.702;8.884;2024-01-10T03:28:56;-5.70;99.90
74822;DHT22;63353;48.702;8.884;2024-01-10T03:31:22;-5.60;99.90
74822;DHT22;63353;48.702;8.884;2024-01-10T03:33:48;-5.60;99.90
74822;DHT22;63353;48.702;8.884;2024-01-10T03:36:16;-5.60;99.90
74822;DHT22;63353;48.702;8.884;2024-01-10T03:38:43;-5.60;99.90
74822;DHT22;63353;48.702;8.884;2024-01-10T03:41:16;-5.60;99.90
74822;DHT22;63353;48.702;8.884;2024-01-10T03:43:42;-5.60;99.90
74822;DHT22;63353;48.702;8.884;2024-01-10T03:46:08;-5.60;99.90
74822;DHT22;63353;48.702;8.884;2024-01-10T03:48:34;-5.60;99.90
74822;DHT22;63353;48.702;8.884;2024-01-10T03:51:00;-5.60;99.90
74822;DHT22;63353;48.702;8.884;2024-01-10T03:53:26;-5.70;99.90
74822;DHT22;63353;48.702;8.884;2024-01-10T03:55:51;-5.70;99.90
74822;DHT22;63353;48.702;8.884;2024-01-10T03:58:17;-5.70;99.90
74822;DHT22;63353;48.702;8.884;2024-01-10T04:00:43;-5.80;99.90
74822;DHT22;63353;48.702;8.884;2024-01-10T04:03:09;-5.80;99.90
74822;DHT22;63353;48.702;8.884;2024-01-10T04:05:35;-5.70;99.90
74822;DHT22;63353;48.702;8.884;2024-01-10T04:08:01;-5.80;99.90
74822;DHT22;63353;48.702;8.884;2024-01-10T04:10:28;-5.80;99.90
74822;DHT22;63353;48.702;8.884;2024-01-10T04:12:54;-5.80;99.90
74822;DHT22;63353;48.702;8.884;2024-01-10T04:15:21;-5.70;99.90
74822;DHT22;63353;48.702;8.884;2024-01-10T04:17:47;-5.70;99.90
74822;DHT22;63353;48.702;8.884;2024-01-10T04:20:13;-5.70;99.90
74822;DHT22;63353;48.702;8.884;2024-01-10T04:22:38;-5.70;99.90
74822;DHT22;63353;48.702;8.884;2024-01-10T04:25:05;-5.60;99.90
74822;DHT22;63353;48.702;8.884;2024-01-10T04:27:31;-5.60;99.90
74822;DHT22;63353;48.702;8.884;2024-01-10T04:29:57;-5.60;99.90
74822;DHT22;63353;48.702;8.884;2024-01-10T04:32:23;-5.60;99.90
74822;DHT22;63353;48.702;8.884;2024-01-10T04:34:48;-5.60;99.90
74822;DHT22;63353;48.702;8.884;2024-01-10T04:37:14;-5.60;99.90
74822;DHT22;63353;48.702;8.884;2024-01-10T04:39:40;-5.60;99.90
74822;DHT22;63353;48.702;8.884;2024-01-10T04:42:08;-5.60;99.90
74822;DHT22;63353;48.702;8.884;2024-01-10T04:44:34;-5.50;99.90
74822;DHT22;63353;48.702;8.884;2024-01-10T04:46:59;-5.50;99.90
74822;DHT22;63353;48.702;8.884;2024-01-10T04:49:25;-5.50;99.90
74822;DHT22;63353;48.702;8.884;2024-01-10T04:51:52;-5.50;99.90
74822;DHT22;63353;48.702;8.884;2024-01-10T04:54:18;-5.50;99.90
74822;DHT22;63353;48.702;8.884;2024-01-10T04:56:44;-5.50;99.90
74822;DHT22;63353;48.702;8.884;2024-01-10T04:59:10;-5.50;99.90
74822;DHT22;63353;48.702;8.884;2024-01-10T05:01:36;-5.60;99.90
74822;DHT22;63353;48.702;8.884;2024-01-10T05:04:02;-5.60;99.90
74822;DHT22;63353;48.702;8.884;2024-01-10T05:06:28;-5.70;99.90
74822;DHT22;63353;48.702;8.884;2024-01-10T05:08:55;-5.70;99.90
74822;DHT22;63353;48.702;8.884;2024-01-10T05:11:24;-5.70;99.90
74822;DHT22;63353;48.702;8.884;2024-01-10T05:13:51;-5.80;99.90
74822;DHT22;63353;48.702;8.884;2024-01-10T05:16:17;-5.80;99.90
74822;DHT22;63353;48.702;8.884;2024-01-10T05:18:43;-5.90;99.90
74822;DHT22;63353;48.702;8.884;2024-01-10T05:21:09;-5.90;99.90
74822;DHT22;63353;48.702;8.884;2024-01-10T05:23:35;-5.90;99.90
74822;DHT22;63353;48.702;8.884;2024-01-10T05:26:02;-6.00;99.90
74822;DHT22;63353;48.702;8.884;2024-01-10T05:28:28;-6.00;99.90
74822;DHT22;63353;48.702;8.884;2024-01-10T05:30:53;-6.10;99.90
74822;DHT22;63353;48.702;8.884;2024-01-10T05:33:19;-6.10;99.90
74822;DHT22;63353;48.702;8.884;2024-01-10T05:35:46;-6.20;99.90
74822;DHT22;63353;48.702;8.884;2024-01-10T05:38:12;-6.20;99.90
74822;DHT22;63353;48.702;8.884;2024-01-10T05:40:38;-6.30;99.90
74822;DHT22;63353;48.702;8.884;2024-01-10T05:43:03;-6.40;99.90
74822;DHT22;63353;48.702;8.884;2024-01-10T05:45:30;-6.40;99.90
74822;DHT22;63353;48.702;8.884;2024-01-10T05:47:56;-6.50;99.90
74822;DHT22;63353;48.702;8.884;2024-01-10T05:50:22;-6.60;99.90
74822;DHT22;63353;48.702;8.884;2024-01-10T05:52:48;-6.60;99.90
74822;DHT22;63353;48.702;8.884;2024-01-10T05:55:13;-6.70;99.90
74822;DHT22;63353;48.702;8.884;2024-01-10T05:57:39;-6.80;99.90
74822;DHT22;63353;48.702;8.884;2024-01-10T06:00:06;-6.90;99.90
74822;DHT22;63353;48.702;8.884;2024-01-10T06:02:36;-6.90;99.90
74822;DHT22;63353;48.702;8.884;2024-01-10T06:05:08;-6.90;99.90
74822;DHT22;63353;48.702;8.884;2024-01-10T06:07:38;-7.00;99.90
74822;DHT22;63353;48.702;8.884;2024-01-10T06:10:04;-7.00;99.90
74822;DHT22;63353;48.702;8.884;2024-01-10T06:12:31;-7.10;99.90
74822;DHT22;63353;48.702;8.884;2024-01-10T06:14:56;-7.10;99.90
74822;DHT22;63353;48.702;8.884;2024-01-10T06:17:23;-7.20;99.90
74822;DHT22;63353;48.702;8.884;2024-01-10T06:19:49;-7.20;99.90
74822;DHT22;63353;48.702;8.884;2024-01-10T06:22:15;-7.30;99.90
74822;DHT22;63353;48.702;8.884;2024-01-10T06:24:45;-7.30;99.90
74822;DHT22;63353;48.702;8.884;2024-01-10T06:27:10;-7.40;99.90
74822;DHT22;63353;48.702;8.884;2024-01-10T06:29:36;-7.50;99.90
74822;DHT22;63353;48.702;8.884;2024-01-10T06:32:05;-7.50;99.90
74822;DHT22;63353;48.702;8.884;2024-01-10T06:34:32;-7.60;99.90
74822;DHT22;63353;48.702;8.884;2024-01-10T06:36:59;-7.60;99.90
74822;DHT22;63353;48.702;8.884;2024-01-10T06:39:25;-7.60;99.90
74822;DHT22;63353;48.702;8.884;2024-01-10T06:41:51;-7.70;99.90
74822;DHT22;63353;48.702;8.884;2024-01-10T06:44:17;-7.70;99.90
74822;DHT22;63353;48.702;8.884;2024-01-10T06:46:43;-7.70;99.90
74822;DHT22;63353;48.702;8.884;2024-01-10T06:49:09;-7.80;99.90
74822;DHT22;63353;48.702;8.884;2024-01-10T06:51:35;-7.80;99.90
74822;DHT22;63353;48.702;8.884;2024-01-10T06:54:00;-7.80;99.90
74822;DHT22;63353;48.702;8.884;2024-01-10T06:56:29;-7.90;99.90
74822;DHT22;63353;48.702;8.884;2024-01-10T06:58:56;-7.90;99.90
74822;DHT22;63353;48.702;8.884;2024-01-10T07:01:22;-7.90;99.90
74822;DHT22;63353;48.702;8.884;2024-01-10T07:03:48;-7.90;99.90
74822;DHT22;63353;48.702;8.884;2024-01-10T07:06:14;-7.90;99.90
74822;DHT22;63353;48.702;8.884;2024-01-10T07:08:45;-7.90;99.90
74822;DHT22;63353;48.702;8.884;2024-01-10T07:11:11;-7.90;99.90
74822;DHT22;63353;48.702;8.884;2024-01-10T07:13:37;-7.90;99.90
74822;DHT22;63353;48.702;8.884;2024-01-10T07:16:03;-7.90;99.90
74822;DHT22;63353;48.702;8.884;2024-01-10T07:18:29;-7.90;99.90
74822;DHT22;63353;48.702;8.884;2024-01-10T07:20:54;-8.00;99.90
74822;DHT22;63353;48.702;8.884;2024-01-10T07:23:20;-8.00;99.90
74822;DHT22;63353;48.702;8.884;2024-01-10T07:25:46;-8.00;99.90
74822;DHT22;63353;48.702;8.884;2024-01-10T07:28:11;-8.00;99.90
74822;DHT22;63353;48.702;8.884;2024-01-10T07:30:37;-7.90;99.90
74822;DHT22;63353;48.702;8.884;2024-01-10T07:33:03;-7.90;99.90
74822;DHT22;63353;48.702;8.884;2024-01-10T07:35:28;-7.90;99.90
74822;DHT22;63353;48.702;8.884;2024-01-10T07:37:55;-7.90;99.90
74822;DHT22;63353;48.702;8.884;2024-01-10T07:40:21;-7.80;99.90
74822;DHT22;63353;48.702;8.884;2024-01-10T07:42:48;-7.80;99.90
74822;DHT22;63353;48.702;8.884;2024-01-10T07:45:13;-7.80;99.90
74822;DHT22;63353;48.702;8.884;2024-01-10T07:47:39;-7.70;99.90
74822;DHT22;63353;48.702;8.884;2024-01-10T07:50:09;-7.70;99.90
74822;DHT22;63353;48.702;8.884;2024-01-10T07:52:36;-7.60;99.90
74822;DHT22;63353;48.702;8.884;2024-01-10T07:55:02;-7.60;99.90
74822;DHT22;63353;48.702;8.884;2024-01-10T07:57:32;-7.50;99.90
74822;DHT22;63353;48.702;8.884;2024-01-10T08:00:00;-7.40;99.90
74822;DHT22;63353;48.702;8.884;2024-01-10T08:02:26;-7.30;99.90
74822;DHT22;63353;48.702;8.884;2024-01-10T08:04:52;-7.20;99.90
74822;DHT22;63353;48.702;8.884;2024-01-10T08:07:18;-7.00;99.90
74822;DHT22;63353;48.702;8.884;2024-01-10T08:09:43;-6.80;99.90
74822;DHT22;63353;48.702;8.884;2024-01-10T08:12:09;-6.60;99.90
74822;DHT22;63353;48.702;8.884;2024-01-10T08:14:34;-6.40;99.90
74822;DHT22;63353;48.702;8.884;2024-01-10T08:17:00;-6.20;99.90
74822;DHT22;63353;48.702;8.884;2024-01-10T08:19:27;-6.10;99.90
74822;DHT22;63353;48.702;8.884;2024-01-10T08:21:55;-6.00;99.90
74822;DHT22;63353;48.702;8.884;2024-01-10T08:24:23;-5.80;99.90
74822;DHT22;63353;48.702;8.884;2024-01-10T08:26:49;-5.70;99.90
74822;DHT22;63353;48.702;8.884;2024-01-10T08:29:20;-5.50;99.90
74822;DHT22;63353;48.702;8.884;2024-01-10T08:31:47;-5.40;99.90
74822;DHT22;63353;48.702;8.884;2024-01-10T08:34:13;-5.30;99.90
74822;DHT22;63353;48.702;8.884;2024-01-10T08:36:38;-5.10;99.90
74822;DHT22;63353;48.702;8.884;2024-01-10T08:39:04;-5.00;99.90
74822;DHT22;63353;48.702;8.884;2024-01-10T08:41:30;-4.90;99.90
74822;DHT22;63353;48.702;8.884;2024-01-10T08:43:57;-4.70;99.90
74822;DHT22;63353;48.702;8.884;2024-01-10T08:46:23;-4.60;99.90
74822;DHT22;63353;48.702;8.884;2024-01-10T08:48:50;-4.50;99.90
74822;DHT22;63353;48.702;8.884;2024-01-10T08:51:15;-4.40;99.90
74822;DHT22;63353;48.702;8.884;2024-01-10T08:53:44;-4.30;99.90
74822;DHT22;63353;48.702;8.884;2024-01-10T08:56:10;-4.20;99.90
74822;DHT22;63353;48.702;8.884;2024-01-10T08:58:36;-4.10;99.90
74822;DHT22;63353;48.702;8.884;2024-01-10T09:01:02;-4.00;99.90
74822;DHT22;63353;48.702;8.884;2024-01-10T09:03:28;-3.90;99.90
74822;DHT22;63353;48.702;8.884;2024-01-10T09:05:54;-3.70;99.90
74822;DHT22;63353;48.702;8.884;2024-01-10T09:08:19;-3.70;99.90
74822;DHT22;63353;48.702;8.884;2024-01-10T09:10:45;-3.50;99.90
74822;DHT22;63353;48.702;8.884;2024-01-10T09:13:11;-3.50;99.90
74822;DHT22;63353;48.702;8.884;2024-01-10T09:15:36;-3.40;99.90
74822;DHT22;63353;48.702;8.884;2024-01-10T09:18:02;-3.30;99.90
74822;DHT22;63353;48.702;8.884;2024-01-10T09:20:29;-3.20;99.90
74822;DHT22;63353;48.702;8.884;2024-01-10T09:22:55;-3.00;99.90
74822;DHT22;63353;48.702;8.884;2024-01-10T09:25:20;-2.90;99.90
74822;DHT22;63353;48.702;8.884;2024-01-10T09:27:46;-2.70;99.90
74822;DHT22;63353;48.702;8.884;2024-01-10T09:30:13;-2.60;99.90
74822;DHT22;63353;48.702;8.884;2024-01-10T09:32:41;-2.40;99.90
74822;DHT22;63353;48.702;8.884;2024-01-10T09:35:08;-2.30;99.90
74822;DHT22;63353;48.702;8.884;2024-01-10T09:37:35;-2.20;99.90
74822;DHT22;63353;48.702;8.884;2024-01-10T09:40:01;-2.00;99.90
74822;DHT22;63353;48.702;8.884;2024-01-10T09:42:28;-2.00;99.90
74822;DHT22;63353;48.702;8.884;2024-01-10T09:44:58;-1.80;99.90
74822;DHT22;63353;48.702;8.884;2024-01-10T09:47:25;-1.60;99.90
74822;DHT22;63353;48.702;8.884;2024-01-10T09:49:51;-1.40;99.90
74822;DHT22;63353;48.702;8.884;2024-01-10T09:52:25;-1.30;99.90
74822;DHT22;63353;48.702;8.884;2024-01-10T09:54:57;-1.20;99.90
74822;DHT22;63353;48.702;8.884;2024-01-10T09:57:26;-1.20;99.90
74822;DHT22;63353;48.702;8.884;2024-01-10T09:59:53;-1.20;99.90
74822;DHT22;63353;48.702;8.884;2024-01-10T10:02:20;-1.30;99.90
74822;DHT22;63353;48.702;8.884;2024-01-10T10:05:01;-1.20;99.90
74822;DHT22;63353;48.702;8.884;2024-01-10T10:07:28;-1.10;99.90
74822;DHT22;63353;48.702;8.884;2024-01-10T10:09:54;-0.90;99.90
74822;DHT22;63353;48.702;8.884;2024-01-10T10:12:24;-0.90;99.90
74822;DHT22;63353;48.702;8.884;2024-01-10T10:15:22;-0.90;99.90
74822;DHT22;63353;48.702;8.884;2024-01-10T10:17:49;-0.60;99.90
74822;DHT22;63353;48.702;8.884;2024-01-10T10:20:24;-0.60;99.90
74822;DHT22;63353;48.702;8.884;2024-01-10T10:23:03;-0.50;99.90
74822;DHT22;63353;48.702;8.884;2024-01-10T10:25:33;-0.30;99.90
74822;DHT22;63353;48.702;8.884;2024-01-10T10:28:00;-0.30;99.90
74822;DHT22;63353;48.702;8.884;2024-01-10T10:30:26;-0.30;99.90
74822;DHT22;63353;48.702;8.884;2024-01-10T10:32:52;-0.20;99.90
74822;DHT22;63353;48.702;8.884;2024-01-10T10:35:21;-0.10;99.90
74822;DHT22;63353;48.702;8.884;2024-01-10T10:37:51;-0.10;99.90
74822;DHT22;63353;48.702;8.884;2024-01-10T10:40:17;0.00;99.90
74822;DHT22;63353;48.702;8.884;2024-01-10T10:43:04;-0.10;99.90
74822;DHT22;63353;48.702;8.884;2024-01-10T10:45:31;-0.30;99.90
74822;DHT22;63353;48.702;8.884;2024-01-10T10:48:00;-0.30;99.90
74822;DHT22;63353;48.702;8.884;2024-01-10T10:50:28;-0.10;99.90
74822;DHT22;63353;48.702;8.884;2024-01-10T10:52:55;0.20;99.90
74822;DHT22;63353;48.702;8.884;2024-01-10T10:55:24;0.30;99.90
74822;DHT22;63353;48.702;8.884;2024-01-10T10:57:52;0.30;99.90
74822;DHT22;63353;48.702;8.884;2024-01-10T11:00:21;0.20;99.90
74822;DHT22;63353;48.702;8.884;2024-01-10T11:02:53;0.20;99.90
74822;DHT22;63353;48.702;8.884;2024-01-10T11:05:22;0.30;99.90
74822;DHT22;63353;48.702;8.884;2024-01-10T11:07:48;0.40;99.90
74822;DHT22;63353;48.702;8.884;2024-01-10T11:10:29;0.40;99.90
74822;DHT22;63353;48.702;8.884;2024-01-10T11:16:04;0.50;99.90
74822;DHT22;63353;48.702;8.884;2024-01-10T11:24:01;0.90;99.90
74822;DHT22;63353;48.702;8.884;2024-01-10T11:26:29;1.10;99.90
74822;DHT22;63353;48.702;8.884;2024-01-10T11:28:56;1.20;99.90
74822;DHT22;63353;48.702;8.884;2024-01-10T11:31:30;1.20;99.90
74822;DHT22;63353;48.702;8.884;2024-01-10T11:34:00;1.30;99.90
74822;DHT22;63353;48.702;8.884;2024-01-10T11:36:26;1.50;99.90
74822;DHT22;63353;48.702;8.884;2024-01-10T11:41:23;1.90;99.90
74822;DHT22;63353;48.702;8.884;2024-01-10T11:46:43;1.30;99.90
74822;DHT22;63353;48.702;8.884;2024-01-10T11:49:13;1.30;99.90
74822;DHT22;63353;48.702;8.884;2024-01-10T11:51:44;1.50;99.90
74822;DHT22;63353;48.702;8.884;2024-01-10T11:54:11;1.70;99.90
74822;DHT22;63353;48.702;8.884;2024-01-10T11:56:41;1.90;99.90
74822;DHT22;63353;48.702;8.884;2024-01-10T11:59:09;2.10;99.90
74822;DHT22;63353;48.702;8.884;2024-01-10T12:01:38;2.10;99.90
74822;DHT22;63353;48.702;8.884;2024-01-10T12:04:10;2.00;99.90
74822;DHT22;63353;48.702;8.884;2024-01-10T12:06:37;1.80;99.90
74822;DHT22;63353;48.702;8.884;2024-01-10T12:09:03;1.90;99.90
74822;DHT22;63353;48.702;8.884;2024-01-10T12:11:39;2.00;99.90
74822;DHT22;63353;48.702;8.884;2024-01-10T12:14:10;2.20;99.90
74822;DHT22;63353;48.702;8.884;2024-01-10T12:16:36;2.20;99.90
74822;DHT22;63353;48.702;8.884;2024-01-10T12:19:02;2.30;99.90
74822;DHT22;63353;48.702;8.884;2024-01-10T12:21:27;2.40;99.90
74822;DHT22;63353;48.702;8.884;2024-01-10T12:23:53;2.60;99.90
74822;DHT22;63353;48.702;8.884;2024-01-10T12:26:20;2.70;99.90
74822;DHT22;63353;48.702;8.884;2024-01-10T12:28:58;2.70;99.90
74822;DHT22;63353;48.702;8.884;2024-01-10T12:31:28;2.50;99.90
74822;DHT22;63353;48.702;8.884;2024-01-10T12:33:58;2.50;99.90
74822;DHT22;63353;48.702;8.884;2024-01-10T12:36:24;2.60;99.90
74822;DHT22;63353;48.702;8.884;2024-01-10T12:38:51;2.80;99.90
74822;DHT22;63353;48.702;8.884;2024-01-10T12:41:18;3.00;99.90
74822;DHT22;63353;48.702;8.884;2024-01-10T12:43:49;3.00;99.90
74822;DHT22;63353;48.702;8.884;2024-01-10T12:46:15;3.00;99.90
74822;DHT22;63353;48.702;8.884;2024-01-10T12:48:42;3.10;99.90
74822;DHT22;63353;48.702;8.884;2024-01-10T12:51:12;3.10;99.90
74822;DHT22;63353;48.702;8.884;2024-01-10T12:53:44;3.00;99.90
74822;DHT22;63353;48.702;8.884;2024-01-10T12:56:10;3.00;99.90
74822;DHT22;63353;48.702;8.884;2024-01-10T12:58:40;3.10;99.90
74822;DHT22;63353;48.702;8.884;2024-01-10T13:01:10;3.20;99.90
74822;DHT22;63353;48.702;8.884;2024-01-10T13:03:38;3.30;99.90
74822;DHT22;63353;48.702;8.884;2024-01-10T13:06:04;3.40;99.90
74822;DHT22;63353;48.702;8.884;2024-01-10T13:08:30;3.30;99.90
74822;DHT22;63353;48.702;8.884;2024-01-10T13:10:57;3.20;99.90
74822;DHT22;63353;48.702;8.884;2024-01-10T13:13:23;3.20;99.90
74822;DHT22;63353;48.702;8.884;2024-01-10T13:15:49;3.20;99.90
74822;DHT22;63353;48.702;8.884;2024-01-10T13:18:14;3.20;99.90
74822;DHT22;63353;48.702;8.884;2024-01-10T13:20:41;3.30;99.90
74822;DHT22;63353;48.702;8.884;2024-01-10T13:23:07;3.50;99.90
74822;DHT22;63353;48.702;8.884;2024-01-10T13:25:34;3.60;99.90
74822;DHT22;63353;48.702;8.884;2024-01-10T13:27:59;3.70;99.90
74822;DHT22;63353;48.702;8.884;2024-01-10T13:30:26;3.90;99.90
74822;DHT22;63353;48.702;8.884;2024-01-10T13:32:52;4.00;99.90
74822;DHT22;63353;48.702;8.884;2024-01-10T13:35:18;4.40;99.90
74822;DHT22;63353;48.702;8.884;2024-01-10T13:37:44;4.50;99.90
74822;DHT22;63353;48.702;8.884;2024-01-10T13:40:10;4.70;99.90
74822;DHT22;63353;48.702;8.884;2024-01-10T13:42:38;4.80;99.90
74822;DHT22;63353;48.702;8.884;2024-01-10T13:45:06;4.90;99.90
74822;DHT22;63353;48.702;8.884;2024-01-10T13:47:32;5.00;99.90
74822;DHT22;63353;48.702;8.884;2024-01-10T13:50:01;5.20;99.90
74822;DHT22;63353;48.702;8.884;2024-01-10T13:52:31;5.50;99.90
74822;DHT22;63353;48.702;8.884;2024-01-10T13:54:56;5.50;99.90
74822;DHT22;63353;48.702;8.884;2024-01-10T13:57:22;5.60;99.90
74822;DHT22;63353;48.702;8.884;2024-01-10T13:59:48;5.60;99.90
74822;DHT22;63353;48.702;8.884;2024-01-10T14:02:14;5.30;99.90
74822;DHT22;63353;48.702;8.884;2024-01-10T14:04:41;5.30;99.90
74822;DHT22;63353;48.702;8.884;2024-01-10T14:07:07;5.30;99.90
74822;DHT22;63353;48.702;8.884;2024-01-10T14:09:33;5.50;99.90
74822;DHT22;63353;48.702;8.884;2024-01-10T14:12:00;5.70;99.90
74822;DHT22;63353;48.702;8.884;2024-01-10T14:14:28;5.70;99.90
74822;DHT22;63353;48.702;8.884;2024-01-10T14:16:55;5.40;99.90
74822;DHT22;63353;48.702;8.884;2024-01-10T14:19:21;5.50;99.90
74822;DHT22;63353;48.702;8.884;2024-01-10T14:21:46;5.50;99.90
74822;DHT22;63353;48.702;8.884;2024-01-10T14:24:13;5.40;99.90
74822;DHT22;63353;48.702;8.884;2024-01-10T14:26:39;5.30;99.90
74822;DHT22;63353;48.702;8.884;2024-01-10T14:29:05;5.30;99.90
74822;DHT22;63353;48.702;8.884;2024-01-10T14:31:32;5.10;99.90
74822;DHT22;63353;48.702;8.884;2024-01-10T14:33:57;5.10;99.90
74822;DHT22;63353;48.702;8.884;2024-01-10T14:36:23;5.10;99.90
74822;DHT22;63353;48.702;8.884;2024-01-10T14:38:49;5.20;99.90
74822;DHT22;63353;48.702;8.884;2024-01-10T14:41:16;5.20;99.90
74822;DHT22;63353;48.702;8.884;2024-01-10T14:43:41;5.00;99.90
74822;DHT22;63353;48.702;8.884;2024-01-10T14:46:07;5.10;99.90
74822;DHT22;63353;48.702;8.884;2024-01-10T14:48:36;5.00;99.90
74822;DHT22;63353;48.702;8.884;2024-01-10T14:51:03;4.90;99.90
74822;DHT22;63353;48.702;8.884;2024-01-10T14:53:32;5.10;99.90
74822;DHT22;63353;48.702;8.884;2024-01-10T14:56:00;5.30;99.90
74822;DHT22;63353;48.702;8.884;2024-01-10T14:58:26;5.00;99.90
74822;DHT22;63353;48.702;8.884;2024-01-10T15:00:51;4.80;99.90
74822;DHT22;63353;48.702;8.884;2024-01-10T15:03:17;4.30;99.90
74822;DHT22;63353;48.702;8.884;2024-01-10T15:05:44;3.70;99.90
74822;DHT22;63353;48.702;8.884;2024-01-10T15:08:11;3.00;99.90
74822;DHT22;63353;48.702;8.884;2024-01-10T15:10:37;2.50;99.90
74822;DHT22;63353;48.702;8.884;2024-01-10T15:13:10;2.10;99.90
74822;DHT22;63353;48.702;8.884;2024-01-10T15:15:39;1.70;99.90
74822;DHT22;63353;48.702;8.884;2024-01-10T15:18:05;1.50;99.90
74822;DHT22;63353;48.702;8.884;2024-01-10T15:20:31;1.10;99.90
74822;DHT22;63353;48.702;8.884;2024-01-10T15:22:56;0.90;99.90
74822;DHT22;63353;48.702;8.884;2024-01-10T15:25:23;0.80;99.90
74822;DHT22;63353;48.702;8.884;2024-01-10T15:27:51;0.60;99.90
74822;DHT22;63353;48.702;8.884;2024-01-10T15:30:18;0.40;99.90
74822;DHT22;63353;48.702;8.884;2024-01-10T15:32:49;0.30;99.90
74822;DHT22;63353;48.702;8.884;2024-01-10T15:35:15;0.10;99.90
74822;DHT22;63353;48.702;8.884;2024-01-10T15:37:45;0.00;99.90
74822;DHT22;63353;48.702;8.884;2024-01-10T15:40:11;-0.10;99.90
74822;DHT22;63353;48.702;8.884;2024-01-10T15:42:42;-0.30;99.90
74822;DHT22;63353;48.702;8.884;2024-01-10T15:45:12;-0.40;99.90
74822;DHT22;63353;48.702;8.884;2024-01-10T15:47:40;-0.50;99.90